sensor_id;sensor_type;location;lat;lon;timestamp;P1;durP1;ratioP1;P2;durP2;ratioP2
32106;SDS011;18622;51.998;10.440;2022-12-18T06:02:48;2.20;;;0.80;;
32106;SDS011;18622;51.998;10.440;2022-12-18T06:05:16;1.82;;;0.70;;
32106;SDS011;18622;51.998;10.440;2022-12-18T06:07:43;1.30;;;0.67;;
32106;SDS011;18622;51.998;10.440;2022-12-18T06:10:11;5.00;;;0.97;;
32106;SDS011;18622;51.998;10.440;2022-12-18T06:25:06;4.37;;;1.85;;
32106;SDS011;18622;51.998;10.440;2022-12-18T06:32:32;7.40;;;1.70;;
32106;SDS011;18622;51.998;10.440;2022-12-18T06:39:58;7.50;;;1.98;;
32106;SDS011;18622;51.998;10.440;2022-12-18T06:47:24;2.43;;;1.03;;
32106;SDS011;18622;51.998;10.440;2022-12-18T06:52:20;3.87;;;1.35;;
32106;SDS011;18622;51.998;10.440;2022-12-18T07:07:13;7.60;;;1.10;;
32106;SDS011;18622;51.998;10.440;2022-12-18T07:17:07;5.77;;;3.20;;
32106;SDS011;18622;51.998;10.440;2022-12-18T07:27:04;17.02;;;7.12;;
32106;SDS011;18622;51.998;10.440;2022-12-18T07:39:27;10.08;;;5.40;;
32106;SDS011;18622;51.998;10.440;2022-12-18T07:51:55;15.08;;;7.20;;
32106;SDS011;18622;51.998;10.440;2022-12-18T07:56:52;20.15;;;10.18;;
32106;SDS011;18622;51.998;10.440;2022-12-18T08:01:50;27.98;;;12.98;;
32106;SDS011;18622;51.998;10.440;2022-12-18T08:09:15;27.25;;;12.50;;
32106;SDS011;18622;51.998;10.440;2022-12-18T08:11:43;39.40;;;16.77;;
32106;SDS011;18622;51.998;10.440;2022-12-18T08:24:08;38.00;;;17.52;;
32106;SDS011;18622;51.998;10.440;2022-12-18T08:26:40;30.77;;;14.50;;
32106;SDS011;18622;51.998;10.440;2022-12-18T08:29:08;28.13;;;14.93;;
32106;SDS011;18622;51.998;10.440;2022-12-18T08:36:34;33.63;;;16.25;;
32106;SDS011;18622;51.998;10.440;2022-12-18T08:41:30;35.90;;;17.15;;
32106;SDS011;18622;51.998;10.440;2022-12-18T08:43:58;37.00;;;16.50;;
32106;SDS011;18622;51.998;10.440;2022-12-18T08:46:44;31.67;;;16.53;;
32106;SDS011;18622;51.998;10.440;2022-12-18T08:49:12;32.10;;;16.30;;
32106;SDS011;18622;51.998;10.440;2022-12-18T08:59:06;34.48;;;14.40;;
32106;SDS011;18622;51.998;10.440;2022-12-18T09:01:35;32.80;;;14.85;;
32106;SDS011;18622;51.998;10.440;2022-12-18T09:06:31;29.15;;;15.20;;
32106;SDS011;18622;51.998;10.440;2022-12-18T09:08:59;36.97;;;17.63;;
32106;SDS011;18622;51.998;10.440;2022-12-18T09:13:56;37.45;;;17.82;;
32106;SDS011;18622;51.998;10.440;2022-12-18T09:16:25;41.28;;;18.87;;
32106;SDS011;18622;51.998;10.440;2022-12-18T09:18:56;41.53;;;20.07;;
32106;SDS011;18622;51.998;10.440;2022-12-18T09:21:27;39.70;;;18.87;;
32106;SDS011;18622;51.998;10.440;2022-12-18T09:23:57;46.97;;;20.43;;
32106;SDS011;18622;51.998;10.440;2022-12-18T09:26:25;36.73;;;19.30;;
32106;SDS011;18622;51.998;10.440;2022-12-18T09:28:53;36.53;;;19.50;;
32106;SDS011;18622;51.998;10.440;2022-12-18T09:31:23;34.83;;;19.20;;
32106;SDS011;18622;51.998;10.440;2022-12-18T09:33:51;36.03;;;17.40;;
32106;SDS011;18622;51.998;10.440;2022-12-18T09:36:19;37.00;;;16.43;;
32106;SDS011;18622;51.998;10.440;2022-12-18T09:38:47;37.40;;;18.07;;
32106;SDS011;18622;51.998;10.440;2022-12-18T09:44:01;34.97;;;17.00;;
32106;SDS011;18622;51.998;10.440;2022-12-18T09:46:32;36.93;;;17.55;;
32106;SDS011;18622;51.998;10.440;2022-12-18T09:49:02;32.03;;;16.10;;
32106;SDS011;18622;51.998;10.440;2022-12-18T09:51:33;36.63;;;16.65;;
32106;SDS011;18622;51.998;10.440;2022-12-18T09:56:40;26.07;;;14.47;;
32106;SDS011;18622;51.998;10.440;2022-12-18T10:01:39;30.75;;;15.13;;
32106;SDS011;18622;51.998;10.440;2022-12-18T10:04:08;27.53;;;15.90;;
32106;SDS011;18622;51.998;10.440;2022-12-18T10:06:50;27.30;;;15.03;;
32106;SDS011;18622;51.998;10.440;2022-12-18T10:09:33;28.60;;;16.15;;
32106;SDS011;18622;51.998;10.440;2022-12-18T10:12:17;35.10;;;17.23;;
32106;SDS011;18622;51.998;10.440;2022-12-18T10:15:02;30.03;;;16.47;;
32106;SDS011;18622;51.998;10.440;2022-12-18T10:17:41;31.23;;;17.20;;
32106;SDS011;18622;51.998;10.440;2022-12-18T10:20:12;28.33;;;15.77;;
32106;SDS011;18622;51.998;10.440;2022-12-18T10:22:43;27.75;;;14.85;;
32106;SDS011;18622;51.998;10.440;2022-12-18T10:25:27;31.73;;;16.93;;
32106;SDS011;18622;51.998;10.440;2022-12-18T10:27:57;25.52;;;14.18;;
32106;SDS011;18622;51.998;10.440;2022-12-18T10:30:26;22.25;;;12.15;;
32106;SDS011;18622;51.998;10.440;2022-12-18T10:32:54;22.23;;;11.80;;
32106;SDS011;18622;51.998;10.440;2022-12-18T10:35:42;24.82;;;12.35;;
32106;SDS011;18622;51.998;10.440;2022-12-18T10:40:49;19.07;;;12.37;;
32106;SDS011;18622;51.998;10.440;2022-12-18T10:43:26;20.27;;;11.67;;
32106;SDS011;18622;51.998;10.440;2022-12-18T10:48:21;22.37;;;13.72;;
32106;SDS011;18622;51.998;10.440;2022-12-18T10:53:24;30.25;;;18.23;;
32106;SDS011;18622;51.998;10.440;2022-12-18T10:55:57;36.47;;;22.57;;
32106;SDS011;18622;51.998;10.440;2022-12-18T10:58:35;42.53;;;19.40;;
32106;SDS011;18622;51.998;10.440;2022-12-18T11:03:42;25.47;;;12.70;;
32106;SDS011;18622;51.998;10.440;2022-12-18T11:06:18;19.90;;;11.90;;
32106;SDS011;18622;51.998;10.440;2022-12-18T11:08:58;20.50;;;11.97;;
32106;SDS011;18622;51.998;10.440;2022-12-18T11:11:28;19.03;;;12.10;;
32106;SDS011;18622;51.998;10.440;2022-12-18T11:14:01;19.77;;;12.77;;
32106;SDS011;18622;51.998;10.440;2022-12-18T11:16:33;21.68;;;12.50;;
32106;SDS011;18622;51.998;10.440;2022-12-18T11:22:00;26.17;;;14.43;;
32106;SDS011;18622;51.998;10.440;2022-12-18T11:24:36;25.00;;;14.33;;
32106;SDS011;18622;51.998;10.440;2022-12-18T11:27:16;23.20;;;14.40;;
32106;SDS011;18622;51.998;10.440;2022-12-18T11:29:45;25.90;;;14.33;;
32106;SDS011;18622;51.998;10.440;2022-12-18T11:35:12;21.27;;;12.93;;
32106;SDS011;18622;51.998;10.440;2022-12-18T11:37:40;26.23;;;13.73;;
32106;SDS011;18622;51.998;10.440;2022-12-18T11:40:16;25.43;;;13.70;;
32106;SDS011;18622;51.998;10.440;2022-12-18T11:42:52;23.37;;;14.03;;
32106;SDS011;18622;51.998;10.440;2022-12-18T11:45:42;27.97;;;14.53;;
32106;SDS011;18622;51.998;10.440;2022-12-18T11:48:17;21.87;;;13.23;;
32106;SDS011;18622;51.998;10.440;2022-12-18T11:51:04;22.67;;;11.30;;
32106;SDS011;18622;51.998;10.440;2022-12-18T12:35:06;28.35;;;16.15;;
32106;SDS011;18622;51.998;10.440;2022-12-18T12:42:00;28.70;;;16.62;;
32106;SDS011;18622;51.998;10.440;2022-12-18T12:47:27;34.78;;;17.02;;
32106;SDS011;18622;51.998;10.440;2022-12-18T12:49:57;28.67;;;16.40;;
32106;SDS011;18622;51.998;10.440;2022-12-18T12:52:33;29.07;;;15.13;;
32106;SDS011;18622;51.998;10.440;2022-12-18T12:55:05;25.67;;;14.07;;
32106;SDS011;18622;51.998;10.440;2022-12-18T12:57:48;23.90;;;13.90;;
32106;SDS011;18622;51.998;10.440;2022-12-18T13:00:19;31.10;;;16.67;;
32106;SDS011;18622;51.998;10.440;2022-12-18T13:08:25;34.63;;;18.55;;
32106;SDS011;18622;51.998;10.440;2022-12-18T13:20:51;30.40;;;16.55;;
32106;SDS011;18622;51.998;10.440;2022-12-18T13:48:51;38.40;;;18.62;;
32106;SDS011;18622;51.998;10.440;2022-12-18T14:16:15;46.95;;;23.98;;
32106;SDS011;18622;51.998;10.440;2022-12-18T14:26:21;50.50;;;22.00;;
32106;SDS011;18622;51.998;10.440;2022-12-18T14:41:13;42.67;;;20.77;;
32106;SDS011;18622;51.998;10.440;2022-12-18T15:16:21;46.40;;;21.90;;
32106;SDS011;18622;51.998;10.440;2022-12-18T15:26:20;50.35;;;23.50;;
32106;SDS011;18622;51.998;10.440;2022-12-18T15:43:51;45.45;;;22.62;;
32106;SDS011;18622;51.998;10.440;2022-12-18T15:48:50;50.12;;;22.75;;
32106;SDS011;18622;51.998;10.440;2022-12-18T15:58:47;51.35;;;22.15;;
32106;SDS011;18622;51.998;10.440;2022-12-18T16:13:41;82.40;;;37.73;;
32106;SDS011;18622;51.998;10.440;2022-12-18T16:21:07;60.83;;;32.13;;
32106;SDS011;18622;51.998;10.440;2022-12-18T16:23:36;53.77;;;26.93;;
32106;SDS011;18622;51.998;10.440;2022-12-18T16:36:07;42.65;;;21.40;;
32106;SDS011;18622;51.998;10.440;2022-12-18T16:46:02;48.85;;;24.57;;
32106;SDS011;18622;51.998;10.440;2022-12-18T17:10:53;61.67;;;25.10;;
32106;SDS011;18622;51.998;10.440;2022-12-18T17:20:50;41.20;;;19.07;;
32106;SDS011;18622;51.998;10.440;2022-12-18T17:23:18;49.17;;;22.50;;
32106;SDS011;18622;51.998;10.440;2022-12-18T17:25:49;52.40;;;23.63;;
32106;SDS011;18622;51.998;10.440;2022-12-18T17:28:22;52.03;;;24.83;;
32106;SDS011;18622;51.998;10.440;2022-12-18T17:35:48;44.80;;;21.05;;
32106;SDS011;18622;51.998;10.440;2022-12-18T17:40:46;39.53;;;16.80;;
32106;SDS011;18622;51.998;10.440;2022-12-18T17:53:13;55.83;;;24.32;;
32106;SDS011;18622;51.998;10.440;2022-12-18T18:18:03;43.92;;;20.02;;
32106;SDS011;18622;51.998;10.440;2022-12-18T18:20:31;43.23;;;19.00;;
32106;SDS011;18622;51.998;10.440;2022-12-18T18:22:58;38.77;;;17.13;;
32106;SDS011;18622;51.998;10.440;2022-12-18T18:25:26;42.70;;;18.87;;
32106;SDS011;18622;51.998;10.440;2022-12-18T18:27:54;41.93;;;18.70;;
32106;SDS011;18622;51.998;10.440;2022-12-18T18:30:22;46.53;;;21.63;;
32106;SDS011;18622;51.998;10.440;2022-12-18T18:32:50;41.17;;;19.00;;
32106;SDS011;18622;51.998;10.440;2022-12-18T18:35:17;37.57;;;17.27;;
32106;SDS011;18622;51.998;10.440;2022-12-18T18:37:48;34.93;;;17.60;;
32106;SDS011;18622;51.998;10.440;2022-12-18T18:40:15;33.18;;;18.00;;
32106;SDS011;18622;51.998;10.440;2022-12-18T18:42:43;40.90;;;20.23;;
32106;SDS011;18622;51.998;10.440;2022-12-18T18:45:11;42.27;;;20.43;;
32106;SDS011;18622;51.998;10.440;2022-12-18T18:47:39;49.27;;;21.90;;
32106;SDS011;18622;51.998;10.440;2022-12-18T18:50:07;43.37;;;22.10;;
32106;SDS011;18622;51.998;10.440;2022-12-18T18:52:36;39.85;;;19.57;;
32106;SDS011;18622;51.998;10.440;2022-12-18T18:55:04;47.53;;;21.97;;
32106;SDS011;18622;51.998;10.440;2022-12-18T18:57:32;41.02;;;19.37;;
32106;SDS011;18622;51.998;10.440;2022-12-18T19:00:00;39.33;;;19.00;;
32106;SDS011;18622;51.998;10.440;2022-12-18T19:02:28;60.80;;;26.37;;
32106;SDS011;18622;51.998;10.440;2022-12-18T19:04:58;60.50;;;23.67;;
32106;SDS011;18622;51.998;10.440;2022-12-18T19:07:25;51.63;;;24.57;;
32106;SDS011;18622;51.998;10.440;2022-12-18T19:09:53;49.40;;;22.93;;
32106;SDS011;18622;51.998;10.440;2022-12-18T19:12:21;52.10;;;24.43;;
32106;SDS011;18622;51.998;10.440;2022-12-18T19:15:07;48.13;;;22.80;;
32106;SDS011;18622;51.998;10.440;2022-12-18T19:17:35;58.37;;;28.63;;
32106;SDS011;18622;51.998;10.440;2022-12-18T19:20:04;42.17;;;20.63;;
32106;SDS011;18622;51.998;10.440;2022-12-18T19:22:31;40.25;;;19.73;;
32106;SDS011;18622;51.998;10.440;2022-12-18T19:24:59;45.53;;;21.13;;
32106;SDS011;18622;51.998;10.440;2022-12-18T19:27:27;46.20;;;22.60;;
32106;SDS011;18622;51.998;10.440;2022-12-18T19:29:55;43.13;;;21.23;;
32106;SDS011;18622;51.998;10.440;2022-12-18T19:32:23;44.70;;;22.73;;
32106;SDS011;18622;51.998;10.440;2022-12-18T19:34:51;40.33;;;19.17;;
32106;SDS011;18622;51.998;10.440;2022-12-18T19:37:19;52.30;;;22.87;;
32106;SDS011;18622;51.998;10.440;2022-12-18T19:39:47;43.73;;;19.73;;
32106;SDS011;18622;51.998;10.440;2022-12-18T19:42:15;36.53;;;18.43;;
32106;SDS011;18622;51.998;10.440;2022-12-18T19:44:43;41.67;;;18.80;;
32106;SDS011;18622;51.998;10.440;2022-12-18T19:47:12;39.60;;;18.62;;
32106;SDS011;18622;51.998;10.440;2022-12-18T19:49:39;45.53;;;19.57;;
32106;SDS011;18622;51.998;10.440;2022-12-18T19:52:07;40.70;;;20.53;;
32106;SDS011;18622;51.998;10.440;2022-12-18T19:54:35;37.73;;;18.93;;
32106;SDS011;18622;51.998;10.440;2022-12-18T19:57:03;49.23;;;23.40;;
32106;SDS011;18622;51.998;10.440;2022-12-18T19:59:33;46.15;;;22.75;;
32106;SDS011;18622;51.998;10.440;2022-12-18T20:02:01;50.45;;;22.40;;
32106;SDS011;18622;51.998;10.440;2022-12-18T20:04:29;64.03;;;30.47;;
32106;SDS011;18622;51.998;10.440;2022-12-18T20:06:57;85.07;;;37.73;;
32106;SDS011;18622;51.998;10.440;2022-12-18T20:09:25;53.57;;;25.23;;
32106;SDS011;18622;51.998;10.440;2022-12-18T20:11:52;43.93;;;21.30;;
32106;SDS011;18622;51.998;10.440;2022-12-18T20:14:20;39.00;;;18.97;;
32106;SDS011;18622;51.998;10.440;2022-12-18T20:16:48;43.53;;;21.70;;
32106;SDS011;18622;51.998;10.440;2022-12-18T20:19:16;42.65;;;21.82;;
32106;SDS011;18622;51.998;10.440;2022-12-18T20:21:44;40.57;;;21.37;;
32106;SDS011;18622;51.998;10.440;2022-12-18T20:24:12;34.87;;;18.40;;
32106;SDS011;18622;51.998;10.440;2022-12-18T20:26:40;34.53;;;17.70;;
32106;SDS011;18622;51.998;10.440;2022-12-18T20:29:08;38.33;;;18.53;;
32106;SDS011;18622;51.998;10.440;2022-12-18T20:31:35;36.20;;;18.50;;
32106;SDS011;18622;51.998;10.440;2022-12-18T20:34:05;36.77;;;18.67;;
32106;SDS011;18622;51.998;10.440;2022-12-18T20:36:33;39.25;;;19.25;;
32106;SDS011;18622;51.998;10.440;2022-12-18T20:39:02;41.47;;;18.67;;
32106;SDS011;18622;51.998;10.440;2022-12-18T20:41:30;40.43;;;18.00;;
32106;SDS011;18622;51.998;10.440;2022-12-18T20:43:58;49.50;;;21.30;;
32106;SDS011;18622;51.998;10.440;2022-12-18T20:46:26;57.67;;;23.37;;
32106;SDS011;18622;51.998;10.440;2022-12-18T20:48:54;46.73;;;20.63;;
32106;SDS011;18622;51.998;10.440;2022-12-18T20:51:21;45.27;;;18.47;;
32106;SDS011;18622;51.998;10.440;2022-12-18T20:53:51;39.73;;;19.83;;
32106;SDS011;18622;51.998;10.440;2022-12-18T20:56:21;50.60;;;22.05;;
32106;SDS011;18622;51.998;10.440;2022-12-18T20:58:49;37.42;;;16.97;;
32106;SDS011;18622;51.998;10.440;2022-12-18T21:01:18;32.50;;;17.70;;
32106;SDS011;18622;51.998;10.440;2022-12-18T21:03:46;34.88;;;16.20;;
32106;SDS011;18622;51.998;10.440;2022-12-18T21:06:15;29.02;;;14.18;;
32106;SDS011;18622;51.998;10.440;2022-12-18T21:11:15;27.70;;;14.20;;
32106;SDS011;18622;51.998;10.440;2022-12-18T21:14:12;27.13;;;13.63;;
32106;SDS011;18622;51.998;10.440;2022-12-18T21:16:37;31.93;;;16.63;;
32106;SDS011;18622;51.998;10.440;2022-12-18T21:19:05;29.20;;;14.83;;
32106;SDS011;18622;51.998;10.440;2022-12-18T21:21:33;46.17;;;20.93;;
32106;SDS011;18622;51.998;10.440;2022-12-18T21:24:01;44.47;;;21.90;;
32106;SDS011;18622;51.998;10.440;2022-12-18T21:26:29;38.67;;;18.70;;
32106;SDS011;18622;51.998;10.440;2022-12-18T21:28:58;36.27;;;19.30;;
32106;SDS011;18622;51.998;10.440;2022-12-18T21:31:28;43.20;;;19.75;;
32106;SDS011;18622;51.998;10.440;2022-12-18T21:33:58;36.20;;;18.05;;
32106;SDS011;18622;51.998;10.440;2022-12-18T21:36:26;33.15;;;15.48;;
32106;SDS011;18622;51.998;10.440;2022-12-18T21:38:54;28.93;;;13.60;;
32106;SDS011;18622;51.998;10.440;2022-12-18T21:41:22;32.08;;;15.20;;
32106;SDS011;18622;51.998;10.440;2022-12-18T21:44:09;26.93;;;14.53;;
32106;SDS011;18622;51.998;10.440;2022-12-18T21:46:39;27.80;;;13.53;;
32106;SDS011;18622;51.998;10.440;2022-12-18T21:49:09;27.42;;;12.80;;
32106;SDS011;18622;51.998;10.440;2022-12-18T21:51:39;27.02;;;13.55;;
32106;SDS011;18622;51.998;10.440;2022-12-18T21:54:07;25.23;;;12.60;;
32106;SDS011;18622;51.998;10.440;2022-12-18T21:56:51;32.47;;;15.03;;
32106;SDS011;18622;51.998;10.440;2022-12-18T21:59:21;31.57;;;14.97;;
32106;SDS011;18622;51.998;10.440;2022-12-18T22:01:51;29.90;;;15.08;;
32106;SDS011;18622;51.998;10.440;2022-12-18T22:04:19;26.68;;;13.32;;
32106;SDS011;18622;51.998;10.440;2022-12-18T22:06:48;27.98;;;14.47;;
32106;SDS011;18622;51.998;10.440;2022-12-18T22:09:17;27.22;;;13.18;;
32106;SDS011;18622;51.998;10.440;2022-12-18T22:11:46;27.48;;;14.07;;
32106;SDS011;18622;51.998;10.440;2022-12-18T22:14:15;29.42;;;13.70;;
32106;SDS011;18622;51.998;10.440;2022-12-18T22:16:46;23.87;;;12.73;;
32106;SDS011;18622;51.998;10.440;2022-12-18T22:19:14;26.07;;;13.55;;
32106;SDS011;18622;51.998;10.440;2022-12-18T22:21:42;25.00;;;12.60;;
32106;SDS011;18622;51.998;10.440;2022-12-18T22:24:15;26.10;;;13.70;;
32106;SDS011;18622;51.998;10.440;2022-12-18T22:26:45;26.68;;;14.23;;
32106;SDS011;18622;51.998;10.440;2022-12-18T22:29:14;31.73;;;13.83;;
32106;SDS011;18622;51.998;10.440;2022-12-18T22:32:01;30.43;;;14.70;;
32106;SDS011;18622;51.998;10.440;2022-12-18T22:34:30;31.62;;;14.68;;
32106;SDS011;18622;51.998;10.440;2022-12-18T22:36:58;29.37;;;14.67;;
32106;SDS011;18622;51.998;10.440;2022-12-18T22:39:26;29.10;;;14.87;;
32106;SDS011;18622;51.998;10.440;2022-12-18T22:41:55;26.80;;;13.18;;
32106;SDS011;18622;51.998;10.440;2022-12-18T22:44:25;26.90;;;15.13;;
